South Amboy, New Jersey
Current Conditions -  °F | °C
As of 12:15 PM on Saturday 20 Dec 2014 (Local Time) from KLDJ Reporting Station
Light Snow Light Snow  
Wind Chill: 36°   Ceiling: 2700
Heat Index: 36°   Visibility: 10mi
Dew Point: 25°   Wind: 0mph
Humidity: 64%   Direction: NA
Pressure: 30.31"   Gusts: NA
Location:  40.48°N, 74.28°W
Report Text: KLDJ 201715Z AUTO 00000KT 10SM -SN OVC027 02/M04 A3031 RMK AO2 T00201041
Loading
Personal Weather Stations






























Interactive Weather Map New forecast layout! Learn more

10-Day Weather Forecast

Advertisements
Track Severe Weather on mobile